createdAt,value
2018-07-17T00:01:33.042Z,95060.00
2018-07-17T00:04:04.988Z,95057.00
2018-07-17T00:06:36.855Z,95064.00
2018-07-17T00:09:09.975Z,95070.00
2018-07-17T00:11:41.912Z,95069.00
2018-07-17T00:14:14.043Z,95065.00
2018-07-17T00:16:46.027Z,95065.00
2018-07-17T00:19:17.970Z,95069.00
2018-07-17T00:21:49.834Z,95065.00
2018-07-17T00:24:22.219Z,95069.00
2018-07-17T00:26:54.049Z,95073.00
2018-07-17T00:29:26.186Z,95069.00
2018-07-17T00:31:58.202Z,95064.00
2018-07-17T00:34:30.264Z,95062.00
2018-07-17T00:37:02.352Z,95063.00
2018-07-17T00:39:34.633Z,95069.00
2018-07-17T00:42:06.634Z,95072.00
2018-07-17T00:44:38.530Z,95067.00
2018-07-17T00:47:10.602Z,95062.00
2018-07-17T00:49:42.538Z,95065.00
2018-07-17T00:52:14.470Z,95080.00
2018-07-17T00:54:46.602Z,95081.00
2018-07-17T00:57:18.670Z,95085.00
2018-07-17T00:59:50.622Z,95076.00
2018-07-17T01:02:27.197Z,95081.00
2018-07-17T01:05:03.950Z,95083.00
2018-07-17T01:07:40.943Z,95082.00
2018-07-17T01:10:17.941Z,95075.00
2018-07-17T01:12:48.711Z,95077.00
2018-07-17T01:15:26.830Z,95077.00
2018-07-17T01:17:58.705Z,95084.00
2018-07-17T01:20:31.381Z,95081.00
2018-07-17T01:23:03.550Z,95083.00
2018-07-17T01:25:35.909Z,95077.00
2018-07-17T01:28:07.752Z,95090.00
2018-07-17T01:30:39.689Z,95090.00
2018-07-17T01:33:11.793Z,95092.00
2018-07-17T01:35:43.692Z,95101.00
2018-07-17T01:38:15.669Z,95101.00
2018-07-17T01:40:47.497Z,95097.00
2018-07-17T01:43:19.374Z,95104.00
2018-07-17T01:45:51.302Z,95105.00
2018-07-17T01:48:23.172Z,95103.00
2018-07-17T01:50:55.209Z,95108.00
2018-07-17T01:53:27.130Z,95102.00
2018-07-17T01:55:59.137Z,95106.00
2018-07-17T01:58:31.011Z,95102.00
2018-07-17T02:01:03.590Z,95110.00
2018-07-17T02:03:35.290Z,95107.00
2018-07-17T02:06:07.694Z,95112.00
2018-07-17T02:08:39.572Z,95115.00
2018-07-17T02:11:11.693Z,95118.00
2018-07-17T02:13:43.810Z,95112.00
2018-07-17T02:16:15.830Z,95117.00
2018-07-17T02:18:47.764Z,95112.00
2018-07-17T02:21:19.647Z,95113.00
2018-07-17T02:23:51.610Z,95113.00
2018-07-17T02:26:23.552Z,95114.00
2018-07-17T02:28:55.401Z,95117.00
2018-07-17T02:31:27.303Z,95127.00
2018-07-17T02:33:59.210Z,95136.00
2018-07-17T02:36:31.230Z,95136.00
2018-07-17T02:39:03.370Z,95131.00
2018-07-17T02:41:35.327Z,95125.00
2018-07-17T02:44:07.302Z,95124.00
2018-07-17T02:46:38.740Z,95126.00
2018-07-17T02:49:10.938Z,95134.00
2018-07-17T02:51:42.924Z,95133.00
2018-07-17T02:54:15.142Z,95135.00
2018-07-17T02:56:47.071Z,95141.00
2018-07-17T02:59:19.071Z,95135.00
2018-07-17T03:01:51.650Z,95139.00
2018-07-17T03:04:23.585Z,95147.00
2018-07-17T03:06:55.534Z,95149.00
2018-07-17T03:09:27.422Z,95153.00
2018-07-17T03:11:59.302Z,95155.00
2018-07-17T03:14:31.802Z,95157.00
2018-07-17T03:17:03.701Z,95161.00
2018-07-17T03:19:35.625Z,95157.00
2018-07-17T03:22:07.694Z,95156.00
2018-07-17T03:24:39.745Z,95154.00
2018-07-17T03:27:11.763Z,95158.00
2018-07-17T03:29:43.750Z,95161.00
2018-07-17T03:32:15.236Z,95167.00
2018-07-17T03:34:46.950Z,95174.00
2018-07-17T03:37:18.871Z,95172.00
2018-07-17T03:39:50.862Z,95176.00
2018-07-17T03:42:22.793Z,95181.00
2018-07-17T03:44:54.950Z,95180.00
2018-07-17T03:47:27.631Z,95185.00
2018-07-17T03:49:59.570Z,95184.00
2018-07-17T03:52:31.611Z,95179.00
2018-07-17T03:55:03.777Z,95175.00
2018-07-17T03:57:35.805Z,95178.00
2018-07-17T04:00:07.751Z,95178.00
2018-07-17T04:02:39.714Z,95176.00
2018-07-17T04:05:11.583Z,95181.00
2018-07-17T04:07:43.570Z,95183.00
2018-07-17T04:10:15.499Z,95191.00
2018-07-17T04:12:47.491Z,95183.00
2018-07-17T04:15:19.414Z,95190.00
2018-07-17T04:17:51.310Z,95187.00
2018-07-17T04:20:23.240Z,95187.00
2018-07-17T04:22:55.407Z,95190.00
2018-07-17T04:25:27.336Z,95193.00
2018-07-17T04:27:59.353Z,95190.00
2018-07-17T04:30:31.270Z,95188.00
2018-07-17T04:33:03.174Z,95193.00
2018-07-17T04:35:35.071Z,95189.00
2018-07-17T04:38:07.406Z,95187.00
2018-07-17T04:40:39.760Z,95183.00
2018-07-17T04:43:11.681Z,95186.00
2018-07-17T04:45:43.551Z,95191.00
2018-07-17T04:48:16.301Z,95195.00
2018-07-17T04:50:48.610Z,95194.00
2018-07-17T04:53:21.010Z,95185.00
2018-07-17T04:55:52.934Z,95191.00
2018-07-17T04:58:25.290Z,95199.00
2018-07-17T05:00:57.350Z,95205.00
2018-07-17T05:03:29.405Z,95207.00
2018-07-17T05:06:01.282Z,95209.00
2018-07-17T05:08:33.341Z,95208.00
2018-07-17T05:11:05.310Z,95206.00
2018-07-17T05:13:37.272Z,95211.00
2018-07-17T05:16:09.253Z,95206.00
2018-07-17T05:18:41.746Z,95214.00
2018-07-17T05:21:13.841Z,95209.00
2018-07-17T05:23:45.818Z,95206.00
2018-07-17T05:26:17.842Z,95218.00
2018-07-17T05:28:49.727Z,95218.00
2018-07-17T05:31:21.671Z,95223.00
2018-07-17T05:33:53.551Z,95224.00
2018-07-17T05:36:25.361Z,95225.00
2018-07-17T05:38:57.340Z,95225.00
2018-07-17T05:41:29.626Z,95231.00
2018-07-17T05:44:01.586Z,95235.00
2018-07-17T05:46:33.848Z,95239.00
2018-07-17T05:49:05.729Z,95238.00
2018-07-17T05:51:37.801Z,95243.00
2018-07-17T05:54:09.945Z,95246.00
2018-07-17T05:56:41.818Z,95243.00
2018-07-17T05:59:13.809Z,95245.00
2018-07-17T06:01:45.682Z,95248.00
2018-07-17T06:04:17.569Z,95255.00
2018-07-17T06:06:50.014Z,95255.00
2018-07-17T06:09:21.897Z,95251.00
2018-07-17T06:11:53.807Z,95254.00
2018-07-17T06:14:26.194Z,95260.00
2018-07-17T06:16:58.043Z,95262.00
2018-07-17T06:19:30.112Z,95266.00
2018-07-17T06:22:01.996Z,95267.00
2018-07-17T06:24:34.310Z,95271.00
2018-07-17T06:27:06.671Z,95272.00
2018-07-17T06:29:38.630Z,95270.00
2018-07-17T06:32:10.651Z,95265.00
2018-07-17T06:34:42.768Z,95263.00
2018-07-17T06:37:14.820Z,95266.00
2018-07-17T06:39:47.180Z,95264.00
2018-07-17T06:42:19.792Z,95264.00
2018-07-17T06:44:51.885Z,95262.00
2018-07-17T06:47:23.941Z,95269.00
2018-07-17T06:49:55.941Z,95262.00
2018-07-17T06:52:27.883Z,95269.00
2018-07-17T06:54:59.930Z,95277.00
2018-07-17T06:57:31.975Z,95270.00
2018-07-17T07:00:04.001Z,95269.00
2018-07-17T07:02:36.015Z,95272.00
2018-07-17T07:05:08.132Z,95267.00
2018-07-17T07:07:40.331Z,95266.00
2018-07-17T07:10:12.395Z,95262.00
2018-07-17T07:12:44.331Z,95269.00
2018-07-17T07:15:19.259Z,95273.00
2018-07-17T07:17:51.210Z,95272.00
2018-07-17T07:20:23.145Z,95274.00
2018-07-17T07:22:55.163Z,95271.00
2018-07-17T07:25:27.162Z,95269.00
2018-07-17T07:27:59.184Z,95266.00
2018-07-17T07:30:31.129Z,95263.00
2018-07-17T07:33:03.083Z,95266.00
2018-07-17T07:35:35.089Z,95280.00
2018-07-17T07:38:07.100Z,95284.00
2018-07-17T07:40:39.145Z,95280.00
2018-07-17T07:43:11.236Z,95269.00
2018-07-17T07:45:44.942Z,95282.00
2018-07-17T07:48:16.925Z,95285.00
2018-07-17T07:50:48.870Z,95290.00
2018-07-17T07:53:20.849Z,95295.00
2018-07-17T07:55:52.757Z,95298.00
2018-07-17T07:58:24.761Z,95295.00
2018-07-17T08:00:56.669Z,95301.00
2018-07-17T08:03:28.594Z,95299.00
2018-07-17T08:06:00.492Z,95302.00
2018-07-17T08:08:32.489Z,95296.00
2018-07-17T08:11:05.444Z,95292.00
2018-07-17T08:13:37.835Z,95293.00
2018-07-17T08:16:09.849Z,95291.00
2018-07-17T08:18:41.922Z,95290.00
2018-07-17T08:21:13.847Z,95282.00
2018-07-17T08:23:45.827Z,95279.00
2018-07-17T08:26:17.345Z,95276.00
2018-07-17T08:28:49.229Z,95277.00
2018-07-17T08:31:21.189Z,95284.00
2018-07-17T08:33:53.121Z,95277.00
2018-07-17T08:36:25.023Z,95280.00
2018-07-17T08:38:56.941Z,95277.00
2018-07-17T08:41:28.907Z,95276.00
2018-07-17T08:44:00.812Z,95275.00
2018-07-17T08:46:32.641Z,95279.00
2018-07-17T08:49:05.021Z,95282.00
2018-07-17T08:51:37.048Z,95288.00
2018-07-17T08:54:09.561Z,95292.00
2018-07-17T08:56:41.460Z,95289.00
2018-07-17T08:59:13.389Z,95290.00
2018-07-17T09:01:45.386Z,95293.00
2018-07-17T09:04:17.826Z,95291.00
2018-07-17T09:06:50.345Z,95292.00
2018-07-17T09:09:22.274Z,95294.00
2018-07-17T09:11:54.841Z,95287.00
2018-07-17T09:14:26.674Z,95285.00
2018-07-17T09:16:58.494Z,95283.00
2018-07-17T09:19:30.510Z,95281.00
2018-07-17T09:22:02.430Z,95283.00
2018-07-17T09:24:34.264Z,95287.00
2018-07-17T09:27:06.213Z,95283.00
2018-07-17T09:29:38.070Z,95280.00
2018-07-17T09:32:09.918Z,95283.00
2018-07-17T09:34:42.082Z,95288.00
2018-07-17T09:37:13.874Z,95289.00
2018-07-17T09:39:45.761Z,95286.00
2018-07-17T09:42:17.846Z,95283.00
2018-07-17T09:44:49.831Z,95274.00
2018-07-17T09:47:21.666Z,95263.00
2018-07-17T09:49:53.670Z,95263.00
2018-07-17T09:52:25.445Z,95262.00
2018-07-17T09:54:58.002Z,95255.00
2018-07-17T09:57:29.897Z,95275.00
2018-07-17T10:00:02.281Z,95280.00
2018-07-17T10:02:34.104Z,95277.00
2018-07-17T10:05:06.081Z,95283.00
2018-07-17T10:07:38.082Z,95283.00
2018-07-17T10:10:09.958Z,95279.00
2018-07-17T10:12:42.010Z,95278.00
2018-07-17T10:15:13.833Z,95274.00
2018-07-17T10:17:45.798Z,95272.00
2018-07-17T10:20:17.314Z,95271.00
2018-07-17T10:22:49.455Z,95270.00
2018-07-17T10:25:21.422Z,95270.00
2018-07-17T10:27:53.427Z,95278.00
2018-07-17T10:30:25.491Z,95276.00
2018-07-17T10:32:56.955Z,95272.00
2018-07-17T10:35:28.309Z,95270.00
2018-07-17T10:38:00.105Z,95272.00
2018-07-17T10:40:32.070Z,95274.00
2018-07-17T10:43:04.012Z,95275.00
2018-07-17T10:45:36.081Z,95275.00
2018-07-17T10:48:08.627Z,95279.00
2018-07-17T10:50:40.471Z,95282.00
2018-07-17T10:53:12.310Z,95281.00
2018-07-17T10:55:43.705Z,95279.00
2018-07-17T10:58:15.613Z,95274.00
2018-07-17T11:00:47.553Z,95272.00
2018-07-17T11:03:19.377Z,95266.00
2018-07-17T11:05:51.250Z,95261.00
2018-07-17T11:08:23.104Z,95255.00
2018-07-17T11:10:55.190Z,95255.00
2018-07-17T11:13:27.030Z,95252.00
2018-07-17T11:15:58.810Z,95254.00
2018-07-17T11:18:30.682Z,95260.00
2018-07-17T11:21:02.829Z,95260.00
2018-07-17T11:23:34.716Z,95248.00
2018-07-17T11:26:06.570Z,95256.00
2018-07-17T11:28:38.550Z,95259.00
2018-07-17T11:31:10.783Z,95260.00
2018-07-17T11:33:42.708Z,95255.00
2018-07-17T11:36:14.887Z,95253.00
2018-07-17T11:38:47.084Z,95251.00
2018-07-17T11:41:19.274Z,95250.00
2018-07-17T11:43:51.054Z,95247.00
2018-07-17T11:46:23.067Z,95247.00
2018-07-17T11:48:54.829Z,95247.00
2018-07-17T11:51:26.788Z,95255.00
2018-07-17T11:53:58.577Z,95248.00
2018-07-17T11:56:30.424Z,95249.00
2018-07-17T11:59:02.293Z,95258.00
2018-07-17T12:01:34.141Z,95261.00
2018-07-17T12:04:06.352Z,95269.00
2018-07-17T12:06:38.228Z,95267.00
2018-07-17T12:09:11.029Z,95263.00
2018-07-17T12:11:42.972Z,95266.00
2018-07-17T12:14:14.890Z,95270.00
2018-07-17T12:16:46.725Z,95278.00
2018-07-17T12:19:18.534Z,95302.00
2018-07-17T12:21:50.414Z,95365.00
2018-07-17T12:24:22.320Z,95372.00
2018-07-17T12:26:54.244Z,95374.00
2018-07-17T12:29:26.063Z,95367.00
2018-07-17T12:31:58.334Z,95357.00
2018-07-17T12:34:30.225Z,95366.00
2018-07-17T12:37:02.202Z,95352.00
2018-07-17T12:39:34.001Z,95323.00
2018-07-17T12:42:05.962Z,95300.00
2018-07-17T12:44:37.894Z,95323.00
2018-07-17T12:47:09.802Z,95356.00
2018-07-17T12:49:42.010Z,95362.00
2018-07-17T12:52:14.266Z,95361.00
2018-07-17T12:54:46.020Z,95364.00
2018-07-17T12:57:18.310Z,95369.00
2018-07-17T12:59:50.130Z,95360.00
2018-07-17T13:02:22.382Z,95356.00
2018-07-17T13:04:55.214Z,95356.00
2018-07-17T13:07:27.169Z,95364.00
2018-07-17T13:09:59.312Z,95360.00
2018-07-17T13:12:31.129Z,95364.00
2018-07-17T13:15:02.854Z,95364.00
2018-07-17T13:17:34.819Z,95359.00
2018-07-17T13:20:07.146Z,95359.00
2018-07-17T13:22:39.113Z,95355.00
2018-07-17T13:25:11.070Z,95348.00
2018-07-17T13:27:42.881Z,95344.00
2018-07-17T13:30:15.110Z,95349.00
2018-07-17T13:32:46.561Z,95348.00
2018-07-17T13:35:18.705Z,95348.00
2018-07-17T13:37:50.554Z,95356.00
2018-07-17T13:40:22.330Z,95370.00
2018-07-17T13:42:54.233Z,95380.00
2018-07-17T13:45:25.629Z,95389.00
2018-07-17T13:47:56.789Z,95390.00
2018-07-17T13:50:28.400Z,95394.00
2018-07-17T13:53:00.408Z,95395.00
2018-07-17T13:55:31.796Z,95394.00
2018-07-17T13:58:02.881Z,95396.00
2018-07-17T14:00:34.442Z,95380.00
2018-07-17T14:03:06.651Z,95368.00
2018-07-17T14:05:38.489Z,95357.00
2018-07-17T14:08:10.371Z,95351.00
2018-07-17T14:10:42.222Z,95347.00
2018-07-17T14:13:14.208Z,95352.00
2018-07-17T14:15:46.177Z,95360.00
2018-07-17T14:18:18.125Z,95355.00
2018-07-17T14:20:50.229Z,95359.00
2018-07-17T14:23:22.131Z,95356.00
2018-07-17T14:25:54.384Z,95350.00
2018-07-17T14:28:26.411Z,95350.00
2018-07-17T14:30:58.312Z,95360.00
2018-07-17T14:33:33.105Z,95359.00
2018-07-17T14:36:05.390Z,95368.00
2018-07-17T14:38:37.261Z,95368.00
2018-07-17T14:41:09.731Z,95374.00
2018-07-17T14:43:44.489Z,95377.00
2018-07-17T14:46:18.469Z,95388.00
2018-07-17T14:48:50.534Z,95388.00
2018-07-17T14:51:22.493Z,95392.00
2018-07-17T14:53:54.650Z,95386.00
2018-07-17T14:56:26.629Z,95390.00
2018-07-17T14:58:58.640Z,95385.00
2018-07-17T15:01:30.651Z,95392.00
2018-07-17T15:04:03.013Z,95402.00
2018-07-17T15:06:34.961Z,95409.00
2018-07-17T15:09:10.007Z,95408.00
2018-07-17T15:11:41.909Z,95394.00
2018-07-17T15:14:13.904Z,95401.00
2018-07-17T15:16:46.003Z,95402.00
2018-07-17T15:19:17.987Z,95417.00
2018-07-17T15:21:50.029Z,95417.00
2018-07-17T15:24:22.130Z,95431.00
2018-07-17T15:26:54.027Z,95432.00
2018-07-17T15:29:26.169Z,95423.00
2018-07-17T15:31:58.107Z,95426.00
2018-07-17T15:34:30.123Z,95409.00
2018-07-17T15:37:02.112Z,95400.00
2018-07-17T15:39:34.139Z,95398.00
2018-07-17T15:42:06.410Z,95396.00
2018-07-17T15:44:38.399Z,95398.00
2018-07-17T15:47:10.683Z,95394.00
2018-07-17T15:49:42.741Z,95387.00
2018-07-17T15:52:14.648Z,95369.00
2018-07-17T15:54:46.778Z,95357.00
2018-07-17T15:57:18.730Z,95352.00
2018-07-17T15:59:50.678Z,95344.00
2018-07-17T16:02:22.504Z,95348.00
2018-07-17T16:04:54.565Z,95351.00
2018-07-17T16:07:26.495Z,95359.00
2018-07-17T16:09:58.524Z,95362.00
2018-07-17T16:12:30.326Z,95374.00
2018-07-17T16:15:02.333Z,95377.00
2018-07-17T16:17:34.361Z,95372.00
2018-07-17T16:20:07.713Z,95371.00
2018-07-17T16:22:39.691Z,95376.00
2018-07-17T16:25:11.582Z,95368.00
2018-07-17T16:27:43.502Z,95366.00
2018-07-17T16:30:15.520Z,95366.00
2018-07-17T16:32:47.552Z,95366.00
2018-07-17T16:35:19.526Z,95366.00
2018-07-17T16:37:51.510Z,95363.00
2018-07-17T16:40:23.584Z,95366.00
2018-07-17T16:42:55.541Z,95370.00
2018-07-17T16:45:27.555Z,95363.00
2018-07-17T16:47:59.499Z,95367.00
2018-07-17T16:50:31.506Z,95370.00
2018-07-17T16:53:03.550Z,95371.00
2018-07-17T16:55:35.523Z,95371.00
2018-07-17T16:58:07.415Z,95370.00
2018-07-17T17:00:39.500Z,95376.00
2018-07-17T17:03:11.860Z,95374.00
2018-07-17T17:05:44.320Z,95370.00
2018-07-17T17:08:16.213Z,95372.00
2018-07-17T17:10:48.476Z,95376.00
2018-07-17T17:13:20.524Z,95378.00
2018-07-17T17:15:52.410Z,95373.00
2018-07-17T17:18:24.341Z,95370.00
2018-07-17T17:20:56.376Z,95368.00
2018-07-17T17:23:28.353Z,95369.00
2018-07-17T17:26:00.386Z,95364.00
2018-07-17T17:28:32.301Z,95364.00
2018-07-17T17:31:04.221Z,95363.00
2018-07-17T17:33:36.226Z,95362.00
2018-07-17T17:36:07.833Z,95359.00
2018-07-17T17:38:39.709Z,95358.00
2018-07-17T17:41:11.849Z,95365.00
2018-07-17T17:43:43.965Z,95366.00
2018-07-17T17:46:16.044Z,95366.00
2018-07-17T17:48:47.954Z,95361.00
2018-07-17T17:51:20.149Z,95363.00
2018-07-17T17:53:52.112Z,95364.00
2018-07-17T17:56:24.123Z,95363.00
2018-07-17T17:58:56.206Z,95359.00
2018-07-17T18:01:28.241Z,95363.00
2018-07-17T18:04:00.275Z,95369.00
2018-07-17T18:06:32.366Z,95369.00
2018-07-17T18:09:05.243Z,95374.00
2018-07-17T18:11:38.225Z,95377.00
2018-07-17T18:14:10.213Z,95375.00
2018-07-17T18:16:42.242Z,95375.00
2018-07-17T18:19:14.220Z,95374.00
2018-07-17T18:21:46.270Z,95378.00
2018-07-17T18:24:18.127Z,95381.00
2018-07-17T18:26:50.105Z,95380.00
2018-07-17T18:29:22.439Z,95383.00
2018-07-17T18:31:54.553Z,95379.00
2018-07-17T18:34:26.555Z,95388.00
2018-07-17T18:36:58.606Z,95383.00
2018-07-17T18:39:30.503Z,95382.00
2018-07-17T18:42:02.842Z,95382.00
2018-07-17T18:44:34.683Z,95383.00
2018-07-17T18:47:06.723Z,95384.00
2018-07-17T18:49:38.621Z,95378.00
2018-07-17T18:52:10.579Z,95385.00
2018-07-17T18:54:42.496Z,95387.00
2018-07-17T18:57:15.163Z,95392.00
2018-07-17T18:59:47.034Z,95404.00
2018-07-17T19:02:19.024Z,95410.00
2018-07-17T19:04:50.969Z,95410.00
2018-07-17T19:07:23.416Z,95427.00
2018-07-17T19:09:55.394Z,95440.00
2018-07-17T19:12:27.721Z,95443.00
2018-07-17T19:14:59.614Z,95440.00
2018-07-17T19:17:31.631Z,95444.00
2018-07-17T19:20:03.954Z,95439.00
2018-07-17T19:22:36.034Z,95436.00
2018-07-17T19:25:08.303Z,95435.00
2018-07-17T19:27:40.317Z,95446.00
2018-07-17T19:30:12.640Z,95455.00
2018-07-17T19:32:45.583Z,95450.00
2018-07-17T19:35:17.851Z,95465.00
2018-07-17T19:37:50.487Z,95469.00
2018-07-17T19:40:24.150Z,95460.00
2018-07-17T19:42:56.553Z,95471.00
2018-07-17T19:45:28.510Z,95467.00
2018-07-17T19:48:00.820Z,95464.00
2018-07-17T19:50:32.865Z,95460.00
2018-07-17T19:53:04.959Z,95466.00
2018-07-17T19:55:37.246Z,95468.00
2018-07-17T19:58:11.023Z,95463.00
2018-07-17T20:00:43.084Z,95467.00
2018-07-17T20:03:16.484Z,95463.00
2018-07-17T20:05:48.595Z,95460.00
2018-07-17T20:08:21.771Z,95459.00
2018-07-17T20:10:53.753Z,95447.00
2018-07-17T20:13:26.044Z,95454.00
2018-07-17T20:15:58.254Z,95458.00
2018-07-17T20:18:30.213Z,95463.00
2018-07-17T20:21:02.101Z,95479.00
2018-07-17T20:23:33.993Z,95485.00
2018-07-17T20:26:06.430Z,95481.00
2018-07-17T20:28:38.349Z,95474.00
2018-07-17T20:31:10.351Z,95476.00
2018-07-17T20:33:42.232Z,95480.00
2018-07-17T20:36:13.523Z,95478.00
2018-07-17T20:38:45.683Z,95479.00
2018-07-17T20:41:18.144Z,95481.00
2018-07-17T20:43:50.022Z,95475.00
2018-07-17T20:46:21.982Z,95462.00
2018-07-17T20:48:53.825Z,95471.00
2018-07-17T20:51:25.656Z,95476.00
2018-07-17T20:53:57.933Z,95475.00
2018-07-17T20:56:29.683Z,95474.00
2018-07-17T20:59:01.530Z,95467.00
2018-07-17T21:01:33.742Z,95470.00
2018-07-17T21:04:06.122Z,95472.00
2018-07-17T21:06:37.949Z,95470.00
2018-07-17T21:09:12.270Z,95477.00
2018-07-17T21:11:44.173Z,95478.00
2018-07-17T21:14:15.942Z,95476.00
2018-07-17T21:16:47.690Z,95481.00
2018-07-17T21:19:20.215Z,95481.00
2018-07-17T21:21:51.941Z,95482.00
2018-07-17T21:24:23.808Z,95481.00
2018-07-17T21:26:55.590Z,95475.00
2018-07-17T21:29:27.770Z,95473.00
2018-07-17T21:31:59.581Z,95483.00
2018-07-17T21:34:31.593Z,95483.00
2018-07-17T21:37:04.010Z,95483.00
2018-07-17T21:39:35.902Z,95489.00
2018-07-17T21:42:08.050Z,95488.00
2018-07-17T21:44:39.922Z,95491.00
2018-07-17T21:47:11.710Z,95494.00
2018-07-17T21:49:43.679Z,95490.00
2018-07-17T21:52:15.835Z,95489.00
2018-07-17T21:54:47.705Z,95494.00
2018-07-17T21:57:19.495Z,95496.00
2018-07-17T21:59:51.257Z,95506.00
2018-07-17T22:02:23.063Z,95507.00
2018-07-17T22:04:55.767Z,95500.00
2018-07-17T22:07:27.570Z,95503.00
2018-07-17T22:09:59.563Z,95510.00
2018-07-17T22:12:32.002Z,95504.00
2018-07-17T22:15:04.039Z,95493.00
2018-07-17T22:17:35.839Z,95496.00
2018-07-17T22:20:07.616Z,95500.00
2018-07-17T22:22:39.389Z,95504.00
2018-07-17T22:25:11.850Z,95499.00
2018-07-17T22:27:43.752Z,95506.00
2018-07-17T22:30:15.450Z,95507.00
2018-07-17T22:32:47.093Z,95500.00
2018-07-17T22:35:19.048Z,95502.00
2018-07-17T22:37:51.126Z,95502.00
2018-07-17T22:40:22.932Z,95505.00
2018-07-17T22:42:54.669Z,95501.00
2018-07-17T22:45:26.708Z,95503.00
2018-07-17T22:47:58.516Z,95504.00
2018-07-17T22:50:30.389Z,95494.00
2018-07-17T22:53:02.209Z,95495.00
2018-07-17T22:55:34.064Z,95490.00
2018-07-17T22:58:05.712Z,95496.00
2018-07-17T23:00:37.616Z,95495.00
2018-07-17T23:03:09.385Z,95494.00
2018-07-17T23:05:41.485Z,95500.00
2018-07-17T23:08:13.311Z,95496.00
2018-07-17T23:10:45.319Z,95489.00
2018-07-17T23:13:16.609Z,95499.00
2018-07-17T23:15:48.149Z,95489.00
2018-07-17T23:18:19.934Z,95494.00
2018-07-17T23:20:51.770Z,95496.00
2018-07-17T23:23:23.878Z,95499.00
2018-07-17T23:25:55.775Z,95497.00
2018-07-17T23:28:27.453Z,95490.00
2018-07-17T23:30:59.282Z,95491.00
2018-07-17T23:33:32.091Z,95503.00
2018-07-17T23:36:03.950Z,95494.00
2018-07-17T23:38:35.729Z,95501.00
2018-07-17T23:41:07.629Z,95501.00
2018-07-17T23:43:39.402Z,95499.00
2018-07-17T23:46:11.288Z,95500.00
2018-07-17T23:48:43.648Z,95506.00
2018-07-17T23:51:15.539Z,95508.00
2018-07-17T23:53:47.337Z,95505.00
2018-07-17T23:56:19.222Z,95510.00
2018-07-17T23:58:51.002Z,95508.00
